sensor_id;sensor_type;location;lat;lon;timestamp;P1;durP1;ratioP1;P2;durP2;ratioP2
7657;SDS011;8462;53.156;8.220;2022-09-12T00:01:11;13.63;;;10.07;;
7657;SDS011;8462;53.156;8.220;2022-09-12T00:03:51;16.63;;;10.37;;
7657;SDS011;8462;53.156;8.220;2022-09-12T00:06:19;12.30;;;9.70;;
7657;SDS011;8462;53.156;8.220;2022-09-12T00:08:56;12.30;;;9.93;;
7657;SDS011;8462;53.156;8.220;2022-09-12T00:11:24;13.70;;;9.60;;
7657;SDS011;8462;53.156;8.220;2022-09-12T00:14:02;13.03;;;9.53;;
7657;SDS011;8462;53.156;8.220;2022-09-12T00:16:31;14.13;;;10.53;;
7657;SDS011;8462;53.156;8.220;2022-09-12T00:19:01;13.37;;;10.17;;
7657;SDS011;8462;53.156;8.220;2022-09-12T00:21:31;14.23;;;9.83;;
7657;SDS011;8462;53.156;8.220;2022-09-12T00:23:58;12.67;;;9.40;;
7657;SDS011;8462;53.156;8.220;2022-09-12T00:26:26;16.50;;;9.83;;
7657;SDS011;8462;53.156;8.220;2022-09-12T00:28:59;12.73;;;9.93;;
7657;SDS011;8462;53.156;8.220;2022-09-12T00:31:28;13.20;;;9.33;;
7657;SDS011;8462;53.156;8.220;2022-09-12T00:33:56;12.50;;;9.50;;
7657;SDS011;8462;53.156;8.220;2022-09-12T00:36:32;13.30;;;9.87;;
7657;SDS011;8462;53.156;8.220;2022-09-12T00:38:59;14.23;;;10.10;;
7657;SDS011;8462;53.156;8.220;2022-09-12T00:41:28;13.63;;;10.40;;
7657;SDS011;8462;53.156;8.220;2022-09-12T00:47:13;11.73;;;9.17;;
7657;SDS011;8462;53.156;8.220;2022-09-12T00:49:44;13.13;;;8.73;;
7657;SDS011;8462;53.156;8.220;2022-09-12T00:52:18;12.27;;;8.53;;
7657;SDS011;8462;53.156;8.220;2022-09-12T00:54:51;13.13;;;9.97;;
7657;SDS011;8462;53.156;8.220;2022-09-12T00:57:23;15.80;;;9.93;;
7657;SDS011;8462;53.156;8.220;2022-09-12T00:59:54;13.30;;;9.27;;
7657;SDS011;8462;53.156;8.220;2022-09-12T01:02:24;12.97;;;9.63;;
7657;SDS011;8462;53.156;8.220;2022-09-12T01:04:52;12.83;;;9.43;;
7657;SDS011;8462;53.156;8.220;2022-09-12T01:07:21;13.10;;;9.43;;
7657;SDS011;8462;53.156;8.220;2022-09-12T01:09:48;12.17;;;9.20;;
7657;SDS011;8462;53.156;8.220;2022-09-12T01:12:22;12.20;;;9.27;;
7657;SDS011;8462;53.156;8.220;2022-09-12T01:14:49;12.20;;;9.20;;
7657;SDS011;8462;53.156;8.220;2022-09-12T01:17:16;13.37;;;9.10;;
7657;SDS011;8462;53.156;8.220;2022-09-12T01:19:51;11.97;;;9.03;;
7657;SDS011;8462;53.156;8.220;2022-09-12T01:22:39;12.07;;;9.53;;
7657;SDS011;8462;53.156;8.220;2022-09-12T01:25:23;13.53;;;9.40;;
7657;SDS011;8462;53.156;8.220;2022-09-12T01:28:07;11.70;;;8.83;;
7657;SDS011;8462;53.156;8.220;2022-09-12T01:30:51;13.13;;;10.10;;
7657;SDS011;8462;53.156;8.220;2022-09-12T01:33:31;11.70;;;8.90;;
7657;SDS011;8462;53.156;8.220;2022-09-12T01:36:10;11.87;;;9.13;;
7657;SDS011;8462;53.156;8.220;2022-09-12T01:39:04;13.40;;;9.33;;
7657;SDS011;8462;53.156;8.220;2022-09-12T01:41:39;11.57;;;9.60;;
7657;SDS011;8462;53.156;8.220;2022-09-12T01:44:18;14.57;;;9.23;;
7657;SDS011;8462;53.156;8.220;2022-09-12T01:46:57;12.67;;;9.90;;
7657;SDS011;8462;53.156;8.220;2022-09-12T01:49:35;11.77;;;9.10;;
7657;SDS011;8462;53.156;8.220;2022-09-12T01:52:09;10.40;;;8.53;;
7657;SDS011;8462;53.156;8.220;2022-09-12T01:54:40;11.93;;;9.00;;
7657;SDS011;8462;53.156;8.220;2022-09-12T01:57:12;12.77;;;9.37;;
7657;SDS011;8462;53.156;8.220;2022-09-12T01:59:44;11.70;;;8.87;;
7657;SDS011;8462;53.156;8.220;2022-09-12T02:02:17;13.53;;;10.10;;
7657;SDS011;8462;53.156;8.220;2022-09-12T02:04:50;14.83;;;10.63;;
7657;SDS011;8462;53.156;8.220;2022-09-12T02:07:21;14.17;;;10.03;;
7657;SDS011;8462;53.156;8.220;2022-09-12T02:09:53;12.13;;;8.77;;
7657;SDS011;8462;53.156;8.220;2022-09-12T02:12:24;13.10;;;9.63;;
7657;SDS011;8462;53.156;8.220;2022-09-12T02:14:58;13.30;;;9.87;;
7657;SDS011;8462;53.156;8.220;2022-09-12T02:17:30;15.23;;;10.00;;
7657;SDS011;8462;53.156;8.220;2022-09-12T02:20:04;12.53;;;9.73;;
7657;SDS011;8462;53.156;8.220;2022-09-12T02:22:35;14.13;;;9.87;;
7657;SDS011;8462;53.156;8.220;2022-09-12T02:25:03;13.20;;;9.87;;
7657;SDS011;8462;53.156;8.220;2022-09-12T02:27:34;12.70;;;9.33;;
7657;SDS011;8462;53.156;8.220;2022-09-12T02:30:05;17.00;;;9.93;;
7657;SDS011;8462;53.156;8.220;2022-09-12T02:32:35;11.97;;;9.63;;
7657;SDS011;8462;53.156;8.220;2022-09-12T02:35:08;13.47;;;9.67;;
7657;SDS011;8462;53.156;8.220;2022-09-12T02:37:54;13.63;;;10.10;;
7657;SDS011;8462;53.156;8.220;2022-09-12T02:40:26;12.53;;;9.20;;
7657;SDS011;8462;53.156;8.220;2022-09-12T02:42:53;12.47;;;9.03;;
7657;SDS011;8462;53.156;8.220;2022-09-12T02:45:21;12.77;;;9.50;;
7657;SDS011;8462;53.156;8.220;2022-09-12T02:47:50;13.40;;;9.83;;
7657;SDS011;8462;53.156;8.220;2022-09-12T02:50:21;11.17;;;8.63;;
7657;SDS011;8462;53.156;8.220;2022-09-12T02:52:48;12.57;;;9.30;;
7657;SDS011;8462;53.156;8.220;2022-09-12T02:55:17;11.10;;;9.13;;
7657;SDS011;8462;53.156;8.220;2022-09-12T02:57:45;11.60;;;9.07;;
7657;SDS011;8462;53.156;8.220;2022-09-12T03:00:12;11.73;;;8.77;;
7657;SDS011;8462;53.156;8.220;2022-09-12T03:02:44;11.00;;;9.00;;
7657;SDS011;8462;53.156;8.220;2022-09-12T03:05:29;11.67;;;8.93;;
7657;SDS011;8462;53.156;8.220;2022-09-12T03:11:14;13.83;;;9.60;;
7657;SDS011;8462;53.156;8.220;2022-09-12T03:13:53;12.37;;;8.50;;
7657;SDS011;8462;53.156;8.220;2022-09-12T03:16:29;12.30;;;9.20;;
7657;SDS011;8462;53.156;8.220;2022-09-12T03:19:09;12.93;;;9.13;;
7657;SDS011;8462;53.156;8.220;2022-09-12T03:21:50;13.77;;;10.17;;
7657;SDS011;8462;53.156;8.220;2022-09-12T03:24:28;11.60;;;9.33;;
7657;SDS011;8462;53.156;8.220;2022-09-12T03:26:57;12.33;;;8.60;;
7657;SDS011;8462;53.156;8.220;2022-09-12T03:29:33;11.40;;;9.37;;
7657;SDS011;8462;53.156;8.220;2022-09-12T03:32:02;11.93;;;9.37;;
7657;SDS011;8462;53.156;8.220;2022-09-12T03:34:30;11.70;;;9.03;;
7657;SDS011;8462;53.156;8.220;2022-09-12T03:36:58;13.33;;;8.50;;
7657;SDS011;8462;53.156;8.220;2022-09-12T03:39:26;12.83;;;9.03;;
7657;SDS011;8462;53.156;8.220;2022-09-12T03:41:53;12.97;;;9.30;;
7657;SDS011;8462;53.156;8.220;2022-09-12T03:44:21;14.87;;;8.73;;
7657;SDS011;8462;53.156;8.220;2022-09-12T03:46:48;12.43;;;9.00;;
7657;SDS011;8462;53.156;8.220;2022-09-12T03:49:15;10.90;;;8.30;;
7657;SDS011;8462;53.156;8.220;2022-09-12T03:51:45;11.40;;;8.73;;
7657;SDS011;8462;53.156;8.220;2022-09-12T03:54:12;11.63;;;8.83;;
7657;SDS011;8462;53.156;8.220;2022-09-12T03:56:38;12.37;;;9.07;;
7657;SDS011;8462;53.156;8.220;2022-09-12T03:59:06;10.53;;;8.00;;
7657;SDS011;8462;53.156;8.220;2022-09-12T04:01:33;11.53;;;7.87;;
7657;SDS011;8462;53.156;8.220;2022-09-12T04:04:02;10.47;;;7.97;;
7657;SDS011;8462;53.156;8.220;2022-09-12T04:06:29;11.30;;;8.90;;
7657;SDS011;8462;53.156;8.220;2022-09-12T04:08:58;9.73;;;7.97;;
7657;SDS011;8462;53.156;8.220;2022-09-12T04:11:26;13.63;;;8.40;;
7657;SDS011;8462;53.156;8.220;2022-09-12T04:13:53;9.50;;;7.87;;
7657;SDS011;8462;53.156;8.220;2022-09-12T04:16:19;11.37;;;7.93;;
7657;SDS011;8462;53.156;8.220;2022-09-12T04:18:46;9.80;;;7.57;;
7657;SDS011;8462;53.156;8.220;2022-09-12T04:21:14;10.50;;;8.10;;
7657;SDS011;8462;53.156;8.220;2022-09-12T04:23:43;12.77;;;8.73;;
7657;SDS011;8462;53.156;8.220;2022-09-12T04:26:12;9.67;;;8.50;;
7657;SDS011;8462;53.156;8.220;2022-09-12T04:28:39;10.20;;;7.97;;
7657;SDS011;8462;53.156;8.220;2022-09-12T04:31:07;10.87;;;8.43;;
7657;SDS011;8462;53.156;8.220;2022-09-12T04:33:36;11.53;;;8.87;;
7657;SDS011;8462;53.156;8.220;2022-09-12T04:36:04;11.53;;;8.13;;
7657;SDS011;8462;53.156;8.220;2022-09-12T04:38:32;10.93;;;8.47;;
7657;SDS011;8462;53.156;8.220;2022-09-12T04:41:08;11.27;;;8.53;;
7657;SDS011;8462;53.156;8.220;2022-09-12T04:43:37;10.83;;;8.73;;
7657;SDS011;8462;53.156;8.220;2022-09-12T04:46:05;14.87;;;9.00;;
7657;SDS011;8462;53.156;8.220;2022-09-12T04:48:32;13.83;;;8.47;;
7657;SDS011;8462;53.156;8.220;2022-09-12T04:51:06;12.60;;;8.53;;
7657;SDS011;8462;53.156;8.220;2022-09-12T04:53:34;12.33;;;8.80;;
7657;SDS011;8462;53.156;8.220;2022-09-12T04:56:02;11.43;;;9.37;;
7657;SDS011;8462;53.156;8.220;2022-09-12T04:58:30;13.67;;;9.67;;
7657;SDS011;8462;53.156;8.220;2022-09-12T05:01:03;13.30;;;8.13;;
7657;SDS011;8462;53.156;8.220;2022-09-12T05:03:31;12.37;;;8.47;;
7657;SDS011;8462;53.156;8.220;2022-09-12T05:05:58;13.33;;;9.13;;
7657;SDS011;8462;53.156;8.220;2022-09-12T05:08:27;14.50;;;9.30;;
7657;SDS011;8462;53.156;8.220;2022-09-12T05:10:54;13.30;;;9.17;;
7657;SDS011;8462;53.156;8.220;2022-09-12T05:13:21;11.37;;;8.80;;
7657;SDS011;8462;53.156;8.220;2022-09-12T05:15:54;13.70;;;9.37;;
7657;SDS011;8462;53.156;8.220;2022-09-12T05:18:23;13.73;;;8.30;;
7657;SDS011;8462;53.156;8.220;2022-09-12T05:20:51;14.17;;;9.27;;
7657;SDS011;8462;53.156;8.220;2022-09-12T05:23:18;16.43;;;10.13;;
7657;SDS011;8462;53.156;8.220;2022-09-12T05:25:48;9.63;;;7.77;;
7657;SDS011;8462;53.156;8.220;2022-09-12T05:28:16;8.33;;;7.03;;
7657;SDS011;8462;53.156;8.220;2022-09-12T05:30:44;9.07;;;7.43;;
7657;SDS011;8462;53.156;8.220;2022-09-12T05:33:11;8.90;;;7.17;;
7657;SDS011;8462;53.156;8.220;2022-09-12T05:35:39;7.97;;;6.97;;
7657;SDS011;8462;53.156;8.220;2022-09-12T05:38:07;8.20;;;6.70;;
7657;SDS011;8462;53.156;8.220;2022-09-12T05:40:34;7.97;;;6.70;;
7657;SDS011;8462;53.156;8.220;2022-09-12T05:43:01;8.47;;;6.77;;
7657;SDS011;8462;53.156;8.220;2022-09-12T05:45:29;9.73;;;7.77;;
7657;SDS011;8462;53.156;8.220;2022-09-12T05:47:56;10.57;;;7.97;;
7657;SDS011;8462;53.156;8.220;2022-09-12T05:50:23;10.17;;;7.40;;
7657;SDS011;8462;53.156;8.220;2022-09-12T05:52:51;7.70;;;6.93;;
7657;SDS011;8462;53.156;8.220;2022-09-12T05:55:19;11.63;;;10.13;;
7657;SDS011;8462;53.156;8.220;2022-09-12T05:57:49;8.80;;;7.77;;
7657;SDS011;8462;53.156;8.220;2022-09-12T06:00:16;8.30;;;7.50;;
7657;SDS011;8462;53.156;8.220;2022-09-12T06:02:44;10.83;;;7.90;;
7657;SDS011;8462;53.156;8.220;2022-09-12T06:05:17;10.33;;;8.00;;
7657;SDS011;8462;53.156;8.220;2022-09-12T06:07:44;10.27;;;8.10;;
7657;SDS011;8462;53.156;8.220;2022-09-12T06:10:12;11.10;;;7.50;;
7657;SDS011;8462;53.156;8.220;2022-09-12T06:12:40;13.43;;;10.87;;
7657;SDS011;8462;53.156;8.220;2022-09-12T06:15:08;10.30;;;8.43;;
7657;SDS011;8462;53.156;8.220;2022-09-12T06:17:35;11.50;;;9.23;;
7657;SDS011;8462;53.156;8.220;2022-09-12T06:20:02;14.60;;;10.23;;
7657;SDS011;8462;53.156;8.220;2022-09-12T06:22:30;11.40;;;9.63;;
7657;SDS011;8462;53.156;8.220;2022-09-12T06:24:57;12.40;;;9.37;;
7657;SDS011;8462;53.156;8.220;2022-09-12T06:27:25;11.47;;;9.43;;
7657;SDS011;8462;53.156;8.220;2022-09-12T06:29:52;9.40;;;8.40;;
7657;SDS011;8462;53.156;8.220;2022-09-12T06:32:18;12.40;;;10.67;;
7657;SDS011;8462;53.156;8.220;2022-09-12T06:34:45;11.40;;;9.93;;
7657;SDS011;8462;53.156;8.220;2022-09-12T06:37:13;10.73;;;9.33;;
7657;SDS011;8462;53.156;8.220;2022-09-12T06:39:39;11.33;;;9.60;;
7657;SDS011;8462;53.156;8.220;2022-09-12T06:42:06;14.40;;;10.53;;
7657;SDS011;8462;53.156;8.220;2022-09-12T06:44:35;11.77;;;10.30;;
7657;SDS011;8462;53.156;8.220;2022-09-12T06:47:02;13.40;;;11.07;;
7657;SDS011;8462;53.156;8.220;2022-09-12T06:49:29;15.63;;;11.63;;
7657;SDS011;8462;53.156;8.220;2022-09-12T06:51:56;13.50;;;10.70;;
7657;SDS011;8462;53.156;8.220;2022-09-12T06:54:23;13.83;;;10.87;;
7657;SDS011;8462;53.156;8.220;2022-09-12T06:56:50;11.97;;;10.73;;
7657;SDS011;8462;53.156;8.220;2022-09-12T06:59:17;13.50;;;10.67;;
7657;SDS011;8462;53.156;8.220;2022-09-12T07:01:46;12.77;;;11.30;;
7657;SDS011;8462;53.156;8.220;2022-09-12T07:04:13;12.50;;;11.20;;
7657;SDS011;8462;53.156;8.220;2022-09-12T07:06:40;12.43;;;11.13;;
7657;SDS011;8462;53.156;8.220;2022-09-12T07:09:09;14.02;;;11.82;;
7657;SDS011;8462;53.156;8.220;2022-09-12T07:11:38;12.73;;;10.88;;
7657;SDS011;8462;53.156;8.220;2022-09-12T07:14:07;13.02;;;11.18;;
7657;SDS011;8462;53.156;8.220;2022-09-12T07:16:37;13.77;;;11.80;;
7657;SDS011;8462;53.156;8.220;2022-09-12T07:19:06;15.93;;;13.02;;
7657;SDS011;8462;53.156;8.220;2022-09-12T07:21:33;12.50;;;11.20;;
7657;SDS011;8462;53.156;8.220;2022-09-12T07:24:04;13.52;;;11.73;;
7657;SDS011;8462;53.156;8.220;2022-09-12T07:26:32;12.75;;;10.98;;
7657;SDS011;8462;53.156;8.220;2022-09-12T07:29:00;13.65;;;11.55;;
7657;SDS011;8462;53.156;8.220;2022-09-12T07:31:27;13.55;;;11.73;;
7657;SDS011;8462;53.156;8.220;2022-09-12T07:33:54;15.10;;;11.97;;
7657;SDS011;8462;53.156;8.220;2022-09-12T07:36:23;18.67;;;13.20;;
7657;SDS011;8462;53.156;8.220;2022-09-12T07:38:54;14.07;;;12.23;;
7657;SDS011;8462;53.156;8.220;2022-09-12T07:41:22;15.70;;;12.57;;
7657;SDS011;8462;53.156;8.220;2022-09-12T07:43:51;16.53;;;13.73;;
7657;SDS011;8462;53.156;8.220;2022-09-12T07:46:19;13.93;;;12.47;;
7657;SDS011;8462;53.156;8.220;2022-09-12T07:48:49;15.63;;;12.27;;
7657;SDS011;8462;53.156;8.220;2022-09-12T07:51:17;15.83;;;12.20;;
7657;SDS011;8462;53.156;8.220;2022-09-12T07:53:47;14.23;;;12.40;;
7657;SDS011;8462;53.156;8.220;2022-09-12T07:56:14;19.03;;;12.70;;
7657;SDS011;8462;53.156;8.220;2022-09-12T07:58:42;17.67;;;12.83;;
7657;SDS011;8462;53.156;8.220;2022-09-12T08:01:10;16.60;;;12.40;;
7657;SDS011;8462;53.156;8.220;2022-09-12T08:03:38;16.40;;;13.17;;
7657;SDS011;8462;53.156;8.220;2022-09-12T08:06:07;16.30;;;12.97;;
7657;SDS011;8462;53.156;8.220;2022-09-12T08:08:35;19.03;;;12.47;;
7657;SDS011;8462;53.156;8.220;2022-09-12T08:11:05;17.23;;;12.93;;
7657;SDS011;8462;53.156;8.220;2022-09-12T08:13:34;20.37;;;13.47;;
7657;SDS011;8462;53.156;8.220;2022-09-12T08:16:03;18.80;;;13.67;;
7657;SDS011;8462;53.156;8.220;2022-09-12T08:18:31;20.40;;;15.17;;
7657;SDS011;8462;53.156;8.220;2022-09-12T08:21:02;18.50;;;13.60;;
7657;SDS011;8462;53.156;8.220;2022-09-12T08:23:32;21.00;;;13.47;;
7657;SDS011;8462;53.156;8.220;2022-09-12T08:26:02;18.93;;;12.23;;
7657;SDS011;8462;53.156;8.220;2022-09-12T08:28:32;18.23;;;13.30;;
7657;SDS011;8462;53.156;8.220;2022-09-12T08:31:03;21.80;;;13.40;;
7657;SDS011;8462;53.156;8.220;2022-09-12T08:33:31;23.17;;;15.10;;
7657;SDS011;8462;53.156;8.220;2022-09-12T08:36:04;17.37;;;13.33;;
7657;SDS011;8462;53.156;8.220;2022-09-12T08:38:33;18.13;;;13.07;;
7657;SDS011;8462;53.156;8.220;2022-09-12T08:41:02;20.10;;;13.27;;
7657;SDS011;8462;53.156;8.220;2022-09-12T08:43:40;16.97;;;13.60;;
7657;SDS011;8462;53.156;8.220;2022-09-12T08:46:21;19.03;;;13.20;;
7657;SDS011;8462;53.156;8.220;2022-09-12T08:49:00;18.23;;;12.67;;
7657;SDS011;8462;53.156;8.220;2022-09-12T08:51:32;15.80;;;13.50;;
7657;SDS011;8462;53.156;8.220;2022-09-12T08:54:01;15.77;;;13.00;;
7657;SDS011;8462;53.156;8.220;2022-09-12T08:56:39;15.37;;;12.37;;
7657;SDS011;8462;53.156;8.220;2022-09-12T08:59:08;17.03;;;12.87;;
7657;SDS011;8462;53.156;8.220;2022-09-12T09:01:36;19.03;;;12.63;;
7657;SDS011;8462;53.156;8.220;2022-09-12T09:04:12;17.17;;;13.53;;
7657;SDS011;8462;53.156;8.220;2022-09-12T09:09:48;18.37;;;13.57;;
7657;SDS011;8462;53.156;8.220;2022-09-12T09:15:14;19.27;;;13.17;;
7657;SDS011;8462;53.156;8.220;2022-09-12T09:17:50;17.37;;;13.23;;
7657;SDS011;8462;53.156;8.220;2022-09-12T09:20:25;18.50;;;14.33;;
7657;SDS011;8462;53.156;8.220;2022-09-12T09:23:06;19.57;;;13.00;;
7657;SDS011;8462;53.156;8.220;2022-09-12T09:25:41;17.10;;;12.30;;
7657;SDS011;8462;53.156;8.220;2022-09-12T09:28:17;14.83;;;11.40;;
7657;SDS011;8462;53.156;8.220;2022-09-12T09:30:49;17.13;;;12.43;;
7657;SDS011;8462;53.156;8.220;2022-09-12T09:33:18;19.67;;;13.77;;
7657;SDS011;8462;53.156;8.220;2022-09-12T09:35:51;19.17;;;15.07;;
7657;SDS011;8462;53.156;8.220;2022-09-12T09:38:27;14.20;;;11.27;;
7657;SDS011;8462;53.156;8.220;2022-09-12T09:41:11;14.37;;;11.60;;
7657;SDS011;8462;53.156;8.220;2022-09-12T09:43:50;13.57;;;10.23;;
7657;SDS011;8462;53.156;8.220;2022-09-12T09:46:19;15.57;;;11.40;;
7657;SDS011;8462;53.156;8.220;2022-09-12T09:48:50;19.00;;;11.77;;
7657;SDS011;8462;53.156;8.220;2022-09-12T09:51:20;15.10;;;11.70;;
7657;SDS011;8462;53.156;8.220;2022-09-12T09:53:51;13.97;;;10.47;;
7657;SDS011;8462;53.156;8.220;2022-09-12T09:56:26;14.53;;;10.50;;
7657;SDS011;8462;53.156;8.220;2022-09-12T09:59:06;13.90;;;9.37;;
7657;SDS011;8462;53.156;8.220;2022-09-12T10:01:34;14.27;;;10.33;;
7657;SDS011;8462;53.156;8.220;2022-09-12T10:04:03;12.33;;;9.30;;
7657;SDS011;8462;53.156;8.220;2022-09-12T10:06:31;12.87;;;9.17;;
7657;SDS011;8462;53.156;8.220;2022-09-12T10:11:54;12.10;;;8.60;;
7657;SDS011;8462;53.156;8.220;2022-09-12T10:14:33;14.33;;;10.40;;
7657;SDS011;8462;53.156;8.220;2022-09-12T10:19:51;10.07;;;8.10;;
7657;SDS011;8462;53.156;8.220;2022-09-12T10:22:19;11.73;;;8.80;;
7657;SDS011;8462;53.156;8.220;2022-09-12T10:24:48;11.90;;;8.37;;
7657;SDS011;8462;53.156;8.220;2022-09-12T10:27:19;9.30;;;7.37;;
7657;SDS011;8462;53.156;8.220;2022-09-12T10:29:53;11.03;;;7.40;;
7657;SDS011;8462;53.156;8.220;2022-09-12T10:32:29;8.73;;;6.43;;
7657;SDS011;8462;53.156;8.220;2022-09-12T10:35:04;10.47;;;7.23;;
7657;SDS011;8462;53.156;8.220;2022-09-12T10:37:34;9.53;;;6.83;;
7657;SDS011;8462;53.156;8.220;2022-09-12T10:40:04;9.27;;;6.67;;
7657;SDS011;8462;53.156;8.220;2022-09-12T10:42:47;6.97;;;5.67;;
7657;SDS011;8462;53.156;8.220;2022-09-12T10:45:21;6.27;;;5.13;;
7657;SDS011;8462;53.156;8.220;2022-09-12T10:47:50;5.83;;;4.63;;
7657;SDS011;8462;53.156;8.220;2022-09-12T10:50:19;6.07;;;4.67;;
7657;SDS011;8462;53.156;8.220;2022-09-12T10:52:47;5.60;;;4.20;;
7657;SDS011;8462;53.156;8.220;2022-09-12T10:55:15;6.33;;;4.13;;
7657;SDS011;8462;53.156;8.220;2022-09-12T11:01:00;4.77;;;4.23;;
7657;SDS011;8462;53.156;8.220;2022-09-12T11:03:35;7.03;;;4.70;;
7657;SDS011;8462;53.156;8.220;2022-09-12T11:06:16;7.78;;;5.43;;
7657;SDS011;8462;53.156;8.220;2022-09-12T11:08:50;6.30;;;4.18;;
7657;SDS011;8462;53.156;8.220;2022-09-12T11:11:37;5.10;;;4.18;;
7657;SDS011;8462;53.156;8.220;2022-09-12T11:14:21;7.38;;;4.38;;
7657;SDS011;8462;53.156;8.220;2022-09-12T11:17:04;6.53;;;5.03;;
7657;SDS011;8462;53.156;8.220;2022-09-12T11:23:03;5.75;;;4.45;;
7657;SDS011;8462;53.156;8.220;2022-09-12T11:25:56;6.55;;;4.50;;
7657;SDS011;8462;53.156;8.220;2022-09-12T11:28:31;6.43;;;4.50;;
7657;SDS011;8462;53.156;8.220;2022-09-12T11:31:23;5.83;;;4.50;;
7657;SDS011;8462;53.156;8.220;2022-09-12T11:34:11;6.87;;;4.30;;
7657;SDS011;8462;53.156;8.220;2022-09-12T11:36:44;7.27;;;4.33;;
7657;SDS011;8462;53.156;8.220;2022-09-12T11:39:22;6.47;;;4.13;;
7657;SDS011;8462;53.156;8.220;2022-09-12T11:41:54;8.87;;;5.20;;
7657;SDS011;8462;53.156;8.220;2022-09-12T11:44:27;10.40;;;5.17;;
7657;SDS011;8462;53.156;8.220;2022-09-12T11:47:06;8.67;;;4.80;;
7657;SDS011;8462;53.156;8.220;2022-09-12T11:49:38;6.50;;;4.67;;
7657;SDS011;8462;53.156;8.220;2022-09-12T11:52:10;6.70;;;5.10;;
7657;SDS011;8462;53.156;8.220;2022-09-12T11:54:41;7.33;;;4.93;;
7657;SDS011;8462;53.156;8.220;2022-09-12T11:57:14;7.47;;;5.33;;
7657;SDS011;8462;53.156;8.220;2022-09-12T11:59:45;8.13;;;5.43;;
7657;SDS011;8462;53.156;8.220;2022-09-12T12:02:19;6.93;;;5.33;;
7657;SDS011;8462;53.156;8.220;2022-09-12T12:04:58;7.67;;;6.47;;
7657;SDS011;8462;53.156;8.220;2022-09-12T12:07:40;8.87;;;6.43;;
7657;SDS011;8462;53.156;8.220;2022-09-12T12:10:20;8.20;;;6.00;;
7657;SDS011;8462;53.156;8.220;2022-09-12T12:12:50;9.23;;;6.47;;
7657;SDS011;8462;53.156;8.220;2022-09-12T12:15:19;9.03;;;6.90;;
7657;SDS011;8462;53.156;8.220;2022-09-12T12:17:58;10.43;;;7.00;;
7657;SDS011;8462;53.156;8.220;2022-09-12T12:20:28;8.80;;;6.63;;
7657;SDS011;8462;53.156;8.220;2022-09-12T12:22:56;10.73;;;6.67;;
7657;SDS011;8462;53.156;8.220;2022-09-12T12:25:24;10.87;;;6.17;;
7657;SDS011;8462;53.156;8.220;2022-09-12T12:28:04;11.03;;;6.57;;
7657;SDS011;8462;53.156;8.220;2022-09-12T12:36:41;10.27;;;6.83;;
7657;SDS011;8462;53.156;8.220;2022-09-12T12:45:43;10.83;;;6.60;;
7657;SDS011;8462;53.156;8.220;2022-09-12T12:48:29;7.93;;;6.50;;
7657;SDS011;8462;53.156;8.220;2022-09-12T12:51:26;9.10;;;5.87;;
7657;SDS011;8462;53.156;8.220;2022-09-12T12:54:00;12.10;;;7.63;;
7657;SDS011;8462;53.156;8.220;2022-09-12T12:56:33;10.63;;;6.37;;
7657;SDS011;8462;53.156;8.220;2022-09-12T12:59:10;8.97;;;6.73;;
7657;SDS011;8462;53.156;8.220;2022-09-12T13:01:46;10.33;;;6.67;;
7657;SDS011;8462;53.156;8.220;2022-09-12T13:04:15;8.40;;;5.83;;
7657;SDS011;8462;53.156;8.220;2022-09-12T13:06:45;9.27;;;5.40;;
7657;SDS011;8462;53.156;8.220;2022-09-12T13:09:25;8.43;;;5.27;;
7657;SDS011;8462;53.156;8.220;2022-09-12T13:11:59;9.63;;;5.90;;
7657;SDS011;8462;53.156;8.220;2022-09-12T13:17:30;7.50;;;4.10;;
7657;SDS011;8462;53.156;8.220;2022-09-12T13:20:05;8.13;;;5.20;;
7657;SDS011;8462;53.156;8.220;2022-09-12T13:22:42;7.77;;;5.47;;
7657;SDS011;8462;53.156;8.220;2022-09-12T13:25:19;6.00;;;4.53;;
7657;SDS011;8462;53.156;8.220;2022-09-12T13:27:55;7.77;;;5.13;;
7657;SDS011;8462;53.156;8.220;2022-09-12T13:30:27;7.68;;;4.88;;
7657;SDS011;8462;53.156;8.220;2022-09-12T13:32:57;8.53;;;5.03;;
7657;SDS011;8462;53.156;8.220;2022-09-12T13:35:36;6.50;;;4.70;;
7657;SDS011;8462;53.156;8.220;2022-09-12T13:38:13;8.63;;;4.68;;
7657;SDS011;8462;53.156;8.220;2022-09-12T13:40:51;5.33;;;4.60;;
7657;SDS011;8462;53.156;8.220;2022-09-12T13:43:28;6.40;;;4.95;;
7657;SDS011;8462;53.156;8.220;2022-09-12T13:46:03;11.05;;;5.10;;
7657;SDS011;8462;53.156;8.220;2022-09-12T13:48:32;7.25;;;4.85;;
7657;SDS011;8462;53.156;8.220;2022-09-12T13:50:59;6.88;;;5.10;;
7657;SDS011;8462;53.156;8.220;2022-09-12T13:53:28;9.63;;;5.23;;
7657;SDS011;8462;53.156;8.220;2022-09-12T13:56:01;9.55;;;5.65;;
7657;SDS011;8462;53.156;8.220;2022-09-12T13:58:29;6.57;;;4.90;;
7657;SDS011;8462;53.156;8.220;2022-09-12T14:01:01;5.43;;;4.50;;
7657;SDS011;8462;53.156;8.220;2022-09-12T14:03:31;5.63;;;4.22;;
7657;SDS011;8462;53.156;8.220;2022-09-12T14:06:17;6.40;;;4.60;;
7657;SDS011;8462;53.156;8.220;2022-09-12T14:08:45;7.43;;;5.17;;
7657;SDS011;8462;53.156;8.220;2022-09-12T14:11:20;7.93;;;5.07;;
7657;SDS011;8462;53.156;8.220;2022-09-12T14:13:50;7.53;;;5.15;;
7657;SDS011;8462;53.156;8.220;2022-09-12T14:16:18;10.17;;;4.87;;
7657;SDS011;8462;53.156;8.220;2022-09-12T14:18:47;9.83;;;5.80;;
7657;SDS011;8462;53.156;8.220;2022-09-12T14:21:19;7.53;;;4.97;;
7657;SDS011;8462;53.156;8.220;2022-09-12T14:23:58;5.83;;;4.50;;
7657;SDS011;8462;53.156;8.220;2022-09-12T14:26:27;5.77;;;4.03;;
7657;SDS011;8462;53.156;8.220;2022-09-12T14:28:59;4.43;;;3.97;;
7657;SDS011;8462;53.156;8.220;2022-09-12T14:31:28;6.45;;;4.32;;
7657;SDS011;8462;53.156;8.220;2022-09-12T14:34:07;6.07;;;3.90;;
7657;SDS011;8462;53.156;8.220;2022-09-12T14:36:39;7.00;;;3.83;;
7657;SDS011;8462;53.156;8.220;2022-09-12T14:39:15;4.60;;;3.63;;
7657;SDS011;8462;53.156;8.220;2022-09-12T14:41:47;5.95;;;4.07;;
7657;SDS011;8462;53.156;8.220;2022-09-12T14:44:16;6.28;;;4.55;;
7657;SDS011;8462;53.156;8.220;2022-09-12T14:46:44;9.30;;;4.03;;
7657;SDS011;8462;53.156;8.220;2022-09-12T14:49:14;5.87;;;4.57;;
7657;SDS011;8462;53.156;8.220;2022-09-12T14:51:46;6.40;;;4.03;;
7657;SDS011;8462;53.156;8.220;2022-09-12T14:57:37;6.83;;;4.33;;
7657;SDS011;8462;53.156;8.220;2022-09-12T15:00:15;7.80;;;4.83;;
7657;SDS011;8462;53.156;8.220;2022-09-12T15:02:45;5.87;;;4.80;;
7657;SDS011;8462;53.156;8.220;2022-09-12T15:05:15;5.97;;;4.43;;
7657;SDS011;8462;53.156;8.220;2022-09-12T15:07:49;5.40;;;4.20;;
7657;SDS011;8462;53.156;8.220;2022-09-12T15:10:19;6.80;;;4.07;;
7657;SDS011;8462;53.156;8.220;2022-09-12T15:12:57;6.27;;;3.50;;
7657;SDS011;8462;53.156;8.220;2022-09-12T15:15:41;7.30;;;4.20;;
7657;SDS011;8462;53.156;8.220;2022-09-12T15:18:09;5.53;;;3.63;;
7657;SDS011;8462;53.156;8.220;2022-09-12T15:20:37;6.80;;;3.70;;
7657;SDS011;8462;53.156;8.220;2022-09-12T15:23:11;5.20;;;3.90;;
7657;SDS011;8462;53.156;8.220;2022-09-12T15:25:43;5.27;;;3.77;;
7657;SDS011;8462;53.156;8.220;2022-09-12T15:28:14;5.40;;;4.10;;
7657;SDS011;8462;53.156;8.220;2022-09-12T15:30:43;5.95;;;4.50;;
7657;SDS011;8462;53.156;8.220;2022-09-12T15:33:14;9.60;;;4.47;;
7657;SDS011;8462;53.156;8.220;2022-09-12T15:35:41;5.80;;;3.80;;
7657;SDS011;8462;53.156;8.220;2022-09-12T15:38:08;5.80;;;3.70;;
7657;SDS011;8462;53.156;8.220;2022-09-12T15:40:35;4.97;;;4.00;;
7657;SDS011;8462;53.156;8.220;2022-09-12T15:43:02;6.67;;;4.00;;
7657;SDS011;8462;53.156;8.220;2022-09-12T15:45:31;5.87;;;4.07;;
7657;SDS011;8462;53.156;8.220;2022-09-12T15:47:59;5.37;;;4.13;;
7657;SDS011;8462;53.156;8.220;2022-09-12T15:50:32;5.07;;;3.77;;
7657;SDS011;8462;53.156;8.220;2022-09-12T15:53:01;6.90;;;3.53;;
7657;SDS011;8462;53.156;8.220;2022-09-12T15:55:28;6.33;;;3.97;;
7657;SDS011;8462;53.156;8.220;2022-09-12T15:57:56;5.17;;;4.30;;
7657;SDS011;8462;53.156;8.220;2022-09-12T16:00:23;4.30;;;3.40;;
7657;SDS011;8462;53.156;8.220;2022-09-12T16:02:52;5.90;;;3.72;;
7657;SDS011;8462;53.156;8.220;2022-09-12T16:05:20;7.07;;;3.30;;
7657;SDS011;8462;53.156;8.220;2022-09-12T16:07:49;4.20;;;3.25;;
7657;SDS011;8462;53.156;8.220;2022-09-12T16:10:19;7.83;;;3.37;;
7657;SDS011;8462;53.156;8.220;2022-09-12T16:12:47;3.97;;;3.10;;